Manaira, Brazil
Current Conditions -  °F | °C
As of 3:00 PM on Friday 21 Nov 2014 (Local Time) from SBJU Reporting Station
Scattered Clouds Scattered Clouds  
Wind Chill: 95°   Ceiling: Unl
Heat Index: 95°   Visibility: 6mi
Dew Point: 61°   Wind: 7mph
Humidity: 32%   Direction: 130°SE
Pressure: 29.88"   Gusts: NA
Location:  7.71°S, 38.15°W
Report Text: SBJU 211800Z 13006KT 9999 SCT022 35/16 Q1012
Loading
Personal Weather Stations






























Interactive Weather Map New forecast layout! Learn more

10-Day Weather Forecast

Advertisements
Track Severe Weather on mobile